Main page
METAR-TAF:

METAR-TAF

Airports :

La Crosse Regional Airport

La Crosse, Wisconsin, United States

latitude: 43-52-46N, longitude: 091-15-24W, elevation: 653 ft

Current weather observation

The report was made 2 hours and 2 minutes ago, at 06:53 UTC
Wind 3 mph from the East
Temperature 37°F
Humidity 81%
Pressure 30.06 in. Hg
Visibility: 10 miles
Clear sky

METAR: KLSE 130653Z AUTO 10003KT 10SM CLR 03/00 A3006 RMK AO2 SLP180 T00330000

Time: 03:55 (08:55 UTC)

Forecast

The report was made 3 hours and 35 minutes ago, at 05:20 UTC
Forecast valid from 13 at 06 UTC to 14 at 06 UTC
Wind 5 mph from the West
Visibility: 6 miles
Clear sky
From 13 at 1800 UTC
Wind 12 mph from the South
Visibility: 6 miles
Clear sky
From 13 at 2000 UTC
Wind 16 mph from the South with gusts up to 23 mph
Visibility: 6 miles
Few clouds at a height of 25000 ft

TAF: KLSE 130520Z 1306/1406 26004KT P6SM SKC FM131800 18010KT P6SM SKC FM132000 19014G20KT P6SM FEW250

Weather observations and forecasts of more than 4000 airports (METAR and TAF reports).

The available stations are represented by yellow and red dots on the map.

Hover mouse over dot to see the name of the station.

Then click to see weather observations and forecasts.

To change the map : click on the green buttons with a black cross to zoom in, on the green button with a dash to zoom out, or on the green arrows for adjacent maps.


METAR-TAF: